METAR Data
IDs: Format: Raw Decoded Include TAF

Data at: 0137 UTC 01 Mar 2021

KRMY 010115Z AUTO 28015G23KT 10SM BKN021 BKN029 BKN110 06/02 A2974 RMK AO2 T00560024